Kamen'-na-Obi, Russia
Current Conditions -  °F | °C
As of 7:30 PM on Sunday 21 Dec 2014 (Local Time) from UNBB Reporting Station
Broken Clouds Broken Clouds  
Wind Chill:   Ceiling: 3100
Heat Index: 18°   Visibility: 6mi
Dew Point: 14°   Wind: 9mph
Humidity: 86%   Direction: 180°S
Pressure: 30.21"   Gusts: NA
Location:  53.82°N, 81.27°E
Report Text: UNBB 211230Z 18004MPS 9999 BKN031 M08/M10 Q1023 NOSIG RMKQFE745/0993 24800560
Loading
Personal Weather Stations






























Interactive Weather Map New forecast layout! Learn more

10-Day Weather Forecast

Advertisements
Track Severe Weather on mobile